Time;durP1;ratioP1;P1;durP2;ratioP2;P2;SDS_P1;SDS_P2;PMS_P1;PMS_P2;Temp;Humidity;BMP_temperature;BMP_pressure;BME280_temperature;BME280_humidity;BME280_pressure;Samples;Min_cycle;Max_cycle;Signal;HPM_P1;HPM_P2
2023/07/25 00:01:04;;;;;;;18.48;11.90;;;;;;;24.33;63.77;94404.19;5089722;28;20247;-42
2023/07/25 00:03:31;;;;;;;15.45;11.48;;;;;;;24.28;63.93;94394.41;5089743;28;20206;-42
2023/07/25 00:05:59;;;;;;;19.63;11.60;;;;;;;24.25;63.91;94392.25;5089791;28;20200;-42
2023/07/25 00:08:26;;;;;;;16.15;11.27;;;;;;;24.25;64.24;94400.09;5090079;28;20186;-42
2023/07/25 00:10:53;;;;;;;15.60;10.52;;;;;;;24.25;64.61;94406.13;5089762;28;20197;-44
2023/07/25 00:13:20;;;;;;;19.77;12.20;;;;;;;24.21;64.56;94398.97;5089547;28;20688;-43
2023/07/25 00:15:48;;;;;;;17.67;12.00;;;;;;;24.19;64.80;94399.19;5089675;28;20257;-43
2023/07/25 00:18:15;;;;;;;16.20;11.32;;;;;;;24.16;64.78;94399.66;5089769;28;20680;-43
2023/07/25 00:20:43;;;;;;;17.52;11.27;;;;;;;24.15;65.18;94400.69;5088205;28;20250;-43
2023/07/25 00:23:09;;;;;;;18.33;11.95;;;;;;;24.14;65.43;94398.31;5089592;28;20686;-43
2023/07/25 00:25:36;;;;;;;21.00;11.27;;;;;;;24.10;65.38;94391.94;5089430;28;20193;-44
2023/07/25 00:28:03;;;;;;;18.15;10.80;;;;;;;24.11;65.49;94393.53;5089235;28;20201;-44
2023/07/25 00:30:29;;;;;;;18.42;11.75;;;;;;;23.98;66.13;94369.22;5089544;28;20327;-43
2023/07/25 00:32:58;;;;;;;21.30;11.32;;;;;;;24.02;65.99;94383.41;5089312;28;20218;-44
2023/07/25 00:35:24;;;;;;;15.05;11.15;;;;;;;24.00;66.04;94380.22;5089531;28;20205;-43
2023/07/25 00:37:51;;;;;;;16.42;10.82;;;;;;;23.96;66.64;94373.06;5089262;28;20247;-43
2023/07/25 00:40:18;;;;;;;16.02;10.70;;;;;;;23.95;66.32;94380.13;5089522;28;20193;-44
2023/07/25 00:42:45;;;;;;;18.73;10.85;;;;;;;23.92;66.41;94377.16;5089439;28;20185;-44
2023/07/25 00:45:12;;;;;;;16.65;11.40;;;;;;;23.92;66.78;94377.16;5089482;28;20265;-43
2023/07/25 00:47:39;;;;;;;21.08;11.40;;;;;;;23.89;66.75;94380.25;5089312;28;20193;-42
2023/07/25 00:50:08;;;;;;;19.02;12.65;;;;;;;23.92;66.81;94371.94;5089295;28;20676;-44
2023/07/25 00:52:35;;;;;;;17.80;10.80;;;;;;;23.90;66.93;94369.56;5089180;28;20189;-44
2023/07/25 00:55:03;;;;;;;16.80;11.25;;;;;;;23.74;66.88;94347.53;5089419;28;20222;-44
2023/07/25 00:57:31;;;;;;;16.98;11.45;;;;;;;23.86;67.06;94362.41;5089311;28;20219;-44
2023/07/25 00:59:58;;;;;;;16.75;11.73;;;;;;;23.83;67.17;94363.66;5089342;28;20413;-44
2023/07/25 01:02:25;;;;;;;20.58;11.52;;;;;;;23.80;67.38;94363.34;5089636;28;20189;-44
2023/07/25 01:04:52;;;;;;;14.48;10.80;;;;;;;23.80;67.36;94358.13;5089076;28;20594;-44
2023/07/25 01:07:21;;;;;;;18.10;10.95;;;;;;;23.78;67.75;94359.13;5089341;28;20202;-44
2023/07/25 01:09:47;;;;;;;19.10;11.95;;;;;;;23.76;67.76;94353.34;5088971;28;20289;-44
2023/07/25 01:12:15;;;;;;;19.33;10.70;;;;;;;23.63;67.69;94339.69;5089124;28;20254;-43
2023/07/25 01:14:42;;;;;;;15.88;9.68;;;;;;;23.74;67.98;94363.19;5088976;28;20226;-43
2023/07/25 01:17:11;;;;;;;15.30;10.48;;;;;;;23.72;68.07;94365.25;5089466;28;20190;-43
2023/07/25 01:19:41;;;;;;;15.70;11.27;;;;;;;23.73;68.09;94369.47;5089725;28;20194;-43
2023/07/25 01:22:08;;;;;;;18.90;10.65;;;;;;;23.67;68.15;94367.75;5093287;28;20184;-45
2023/07/25 01:24:38;;;;;;;15.07;10.90;;;;;;;23.53;68.16;94343.66;5089791;28;20660;-43
2023/07/25 01:27:05;;;;;;;16.10;11.05;;;;;;;23.67;68.38;94366.97;5089191;28;20204;-45
2023/07/25 01:29:32;;;;;;;16.08;9.88;;;;;;;23.65;68.34;94361.97;5088881;28;20241;-43
2023/07/25 01:31:59;;;;;;;17.58;10.75;;;;;;;23.63;68.67;94360.59;5089197;28;20193;-43
2023/07/25 01:34:25;;;;;;;13.43;10.18;;;;;;;23.62;68.56;94357.19;5089029;28;20213;-44
2023/07/25 01:36:52;;;;;;;18.85;10.95;;;;;;;23.60;68.30;94353.19;5089236;28;20289;-44
2023/07/25 01:39:19;;;;;;;16.13;10.02;;;;;;;23.59;68.72;94341.97;5092204;28;20193;-44
2023/07/25 01:41:47;;;;;;;16.88;10.02;;;;;;;23.57;68.66;94341.38;5092691;28;20732;-44
2023/07/25 01:44:14;;;;;;;16.13;10.10;;;;;;;23.56;68.79;94354.66;5092411;28;20647;-43
2023/07/25 01:46:41;;;;;;;20.48;10.68;;;;;;;23.51;69.14;94345.69;5092776;28;20185;-44
2023/07/25 01:49:09;;;;;;;19.08;11.23;;;;;;;23.51;68.97;94353.53;5092428;28;20285;-43
2023/07/25 01:51:36;;;;;;;20.13;11.68;;;;;;;23.52;69.19;94362.16;5092249;28;20224;-44
2023/07/25 01:54:04;;;;;;;16.27;10.00;;;;;;;23.49;68.94;94371.25;5092022;28;20278;-44
2023/07/25 01:56:30;;;;;;;15.77;9.82;;;;;;;23.47;68.82;94373.25;5092095;28;20568;-43
2023/07/25 01:58:59;;;;;;;12.07;9.52;;;;;;;23.35;67.78;94364.63;5092435;28;20190;-43
2023/07/25 02:01:25;;;;;;;13.32;10.05;;;;;;;23.27;67.77;94373.59;5092003;28;20892;-44
2023/07/25 02:03:52;;;;;;;15.15;8.80;;;;;;;23.17;67.94;94362.88;5092129;28;20532;-44
2023/07/25 02:06:19;;;;;;;17.13;9.88;;;;;;;23.16;68.09;94376.97;5091808;28;20642;-43
2023/07/25 02:08:46;;;;;;;17.48;9.85;;;;;;;23.16;68.49;94382.19;5091929;28;20642;-43
2023/07/25 02:11:12;;;;;;;18.70;9.77;;;;;;;23.18;68.17;94392.38;5091518;28;20653;-43
2023/07/25 02:13:39;;;;;;;17.40;10.35;;;;;;;23.20;68.67;94395.56;5091907;28;20229;-45
2023/07/25 02:16:07;;;;;;;14.18;9.70;;;;;;;23.16;68.57;94390.00;5091975;28;20193;-41
2023/07/25 02:18:34;;;;;;;18.08;9.20;;;;;;;23.15;68.90;94395.47;5092217;28;20190;-42
2023/07/25 02:21:01;;;;;;;16.50;9.35;;;;;;;23.10;68.71;94383.09;5091828;28;20204;-42
2023/07/25 02:23:28;;;;;;;17.08;9.85;;;;;;;23.12;69.14;94396.69;5091349;28;20197;-43
2023/07/25 02:25:55;;;;;;;15.80;9.65;;;;;;;23.15;69.22;94403.28;5091755;28;20546;-42
2023/07/25 02:28:22;;;;;;;18.33;9.82;;;;;;;23.00;69.11;94383.59;5091688;28;20188;-43
2023/07/25 02:30:49;;;;;;;21.15;10.15;;;;;;;23.11;69.90;94402.13;5091471;28;20225;-44
2023/07/25 02:33:17;;;;;;;14.88;10.82;;;;;;;23.06;69.91;94413.25;5091391;28;20201;-44
2023/07/25 02:35:43;;;;;;;18.85;11.25;;;;;;;22.49;70.31;94337.91;5091704;28;20221;-43
2023/07/25 02:38:10;;;;;;;21.42;11.88;;;;;;;22.95;70.53;94424.41;5091029;28;20610;-43
2023/07/25 02:40:37;;;;;;;19.77;11.85;;;;;;;22.82;70.62;94404.47;5091831;28;20657;-43
2023/07/25 02:43:06;;;;;;;17.63;12.60;;;;;;;22.72;70.88;94399.78;5091104;28;20194;-43
2023/07/25 02:45:33;;;;;;;22.33;12.00;;;;;;;22.75;70.70;94406.38;5091591;28;20205;-43
2023/07/25 02:48:00;;;;;;;20.90;11.05;;;;;;;22.73;70.76;94404.00;5091480;28;20189;-44
2023/07/25 02:50:28;;;;;;;18.75;11.05;;;;;;;22.72;70.62;94401.63;5091358;28;20661;-43
2023/07/25 02:52:55;;;;;;;13.95;10.27;;;;;;;22.71;70.86;94398.22;5091112;28;20637;-43
2023/07/25 02:55:22;;;;;;;14.77;11.68;;;;;;;22.71;70.74;94398.22;5091061;28;20221;-43
2023/07/25 02:57:48;;;;;;;19.65;11.88;;;;;;;22.69;71.09;94395.00;5091550;28;20185;-44
2023/07/25 03:00:15;;;;;;;17.67;11.93;;;;;;;22.70;70.80;94404.41;5091323;28;20186;-43
2023/07/25 03:02:42;;;;;;;23.05;11.98;;;;;;;22.72;70.90;94401.63;5091125;28;20288;-44
2023/07/25 03:05:09;;;;;;;21.05;13.18;;;;;;;22.70;70.54;94407.03;5090975;28;20267;-43
2023/07/25 03:07:38;;;;;;;24.25;12.38;;;;;;;22.60;70.63;94393.72;5091135;28;20189;-43
2023/07/25 03:10:05;;;;;;;20.30;13.18;;;;;;;22.54;71.06;94392.81;5091063;28;20193;-43
2023/07/25 03:12:32;;;;;;;23.60;13.52;;;;;;;22.58;71.12;94394.94;5093150;28;20197;-44
2023/07/25 03:14:59;;;;;;;20.98;13.30;;;;;;;22.57;71.41;94401.19;5090465;28;20779;-42
2023/07/25 03:17:25;;;;;;;18.52;12.60;;;;;;;22.58;71.70;94400.97;5090670;28;20182;-43
2023/07/25 03:19:53;;;;;;;21.23;12.48;;;;;;;22.54;71.54;94390.19;5090465;28;20660;-44
2023/07/25 03:22:20;;;;;;;20.27;12.35;;;;;;;22.58;71.71;94398.34;5090419;28;20200;-43
2023/07/25 03:24:49;;;;;;;25.73;12.68;;;;;;;22.59;71.33;94410.38;5090718;28;20274;-43
2023/07/25 03:27:16;;;;;;;21.08;12.38;;;;;;;22.61;71.18;94394.53;5090423;28;20205;-42
2023/07/25 03:29:43;;;;;;;20.17;13.45;;;;;;;22.64;71.65;94404.50;5090435;28;20217;-44
2023/07/25 03:32:10;;;;;;;25.95;13.07;;;;;;;22.64;71.62;94397.50;5090741;28;20193;-48
2023/07/25 03:34:37;;;;;;;22.60;13.38;;;;;;;22.62;71.72;94403.91;5090533;28;20236;-44
2023/07/25 03:37:04;;;;;;;21.70;13.75;;;;;;;22.61;71.61;94405.75;5090279;28;20182;-44
2023/07/25 03:39:31;;;;;;;21.95;12.82;;;;;;;22.61;71.87;94392.72;5090449;28;20200;-43
2023/07/25 03:41:59;;;;;;;19.88;13.80;;;;;;;22.62;72.11;94406.53;5090189;28;20221;-43
2023/07/25 03:44:25;;;;;;;18.75;13.80;;;;;;;22.64;72.06;94396.69;5090661;28;20185;-45
2023/07/25 03:46:52;;;;;;;23.05;13.07;;;;;;;22.69;71.61;94405.44;5090651;28;20554;-43
2023/07/25 03:49:19;;;;;;;19.30;12.57;;;;;;;22.74;71.72;94402.97;5089916;28;20262;-43
2023/07/25 03:51:46;;;;;;;24.42;12.88;;;;;;;22.78;71.62;94404.13;5090192;28;20185;-46
2023/07/25 03:54:12;;;;;;;19.17;12.57;;;;;;;22.85;71.64;94398.84;5090174;28;20217;-43
2023/07/25 03:56:39;;;;;;;22.20;13.63;;;;;;;22.94;71.43;94396.75;5090257;28;20201;-43
2023/07/25 03:59:07;;;;;;;24.38;13.85;;;;;;;23.01;70.96;94392.22;5090332;28;20243;-43
2023/07/25 04:01:34;;;;;;;21.35;13.07;;;;;;;23.10;70.80;94396.13;5089309;28;20200;-45
2023/07/25 04:04:01;;;;;;;19.95;12.80;;;;;;;23.10;70.57;94383.09;5089985;28;20186;-44
2023/07/25 04:06:28;;;;;;;19.80;12.80;;;;;;;23.17;70.25;94388.19;5090094;28;20185;-43
2023/07/25 04:08:55;;;;;;;20.83;12.18;;;;;;;23.26;69.66;94390.25;5089680;28;20673;-43
2023/07/25 04:11:21;;;;;;;19.58;12.50;;;;;;;23.25;69.58;94395.69;5089410;28;20193;-44
2023/07/25 04:13:48;;;;;;;19.55;12.05;;;;;;;23.24;69.69;94400.13;5089443;28;20239;-43
2023/07/25 04:16:16;;;;;;;23.15;12.05;;;;;;;23.29;69.91;94404.66;5089963;28;20345;-42
2023/07/25 04:18:43;;;;;;;17.45;11.93;;;;;;;23.37;68.63;94411.41;5089894;28;20186;-43
2023/07/25 04:21:10;;;;;;;15.90;11.45;;;;;;;23.36;68.79;94410.59;5089828;28;20205;-42
2023/07/25 04:23:37;;;;;;;18.60;12.02;;;;;;;23.41;68.99;94417.75;5089437;28;20653;-43
2023/07/25 04:26:04;;;;;;;20.50;11.82;;;;;;;23.44;69.39;94418.06;5089551;28;20665;-42
2023/07/25 04:28:31;;;;;;;17.83;10.98;;;;;;;23.49;69.59;94415.63;5089339;28;20569;-44
2023/07/25 04:30:57;;;;;;;19.08;11.93;;;;;;;23.54;69.14;94409.72;5089441;28;20217;-44
2023/07/25 04:33:26;;;;;;;24.30;12.85;;;;;;;23.68;68.71;94405.09;5089513;28;20186;-42
2023/07/25 04:35:52;;;;;;;17.33;11.05;;;;;;;23.81;68.59;94407.50;5089418;28;20711;-43
2023/07/25 04:38:19;;;;;;;19.48;11.27;;;;;;;23.85;67.71;94392.19;5089433;28;20689;-43
2023/07/25 04:40:46;;;;;;;20.00;11.52;;;;;;;23.97;67.54;94385.94;5089717;28;20662;-44
2023/07/25 04:43:13;;;;;;;22.77;11.93;;;;;;;24.10;66.92;94397.19;5089787;28;20177;-44
2023/07/25 04:45:39;;;;;;;17.70;11.77;;;;;;;24.21;66.38;94396.34;5089255;28;20545;-42
2023/07/25 04:48:07;;;;;;;17.13;12.05;;;;;;;24.32;65.98;94384.31;5089816;28;20181;-43
2023/07/25 04:50:35;;;;;;;20.95;12.60;;;;;;;24.41;65.39;94388.97;5089175;28;20182;-43
2023/07/25 04:53:02;;;;;;;22.85;13.40;;;;;;;24.55;64.54;94388.69;5089704;28;20194;-43
2023/07/25 04:55:28;;;;;;;19.23;12.52;;;;;;;24.69;63.87;94396.03;5088992;28;20213;-43
2023/07/25 04:57:55;;;;;;;21.67;12.38;;;;;;;24.74;63.67;94388.31;5089666;28;20198;-44
2023/07/25 05:00:22;;;;;;;21.05;12.93;;;;;;;24.82;63.61;94389.75;5088887;28;20645;-44
2023/07/25 05:02:49;;;;;;;18.13;12.52;;;;;;;24.90;63.91;94386.75;5090198;28;20572;-44
2023/07/25 05:05:16;;;;;;;22.70;13.52;;;;;;;25.02;63.27;94371.81;5090051;28;20548;-43
2023/07/25 05:07:44;;;;;;;27.40;13.45;;;;;;;25.19;62.98;94377.09;5089272;28;20197;-43
2023/07/25 05:10:11;;;;;;;27.20;14.05;;;;;;;25.30;62.31;94372.03;5089273;28;20201;-43
2023/07/25 05:12:38;;;;;;;18.10;13.63;;;;;;;25.55;61.86;94375.03;5090812;28;20259;-42
2023/07/25 05:15:06;;;;;;;17.83;13.65;;;;;;;25.84;61.57;94380.22;5093471;28;20278;-43
2023/07/25 05:17:32;;;;;;;22.27;12.90;;;;;;;26.22;60.57;94371.59;5093075;28;20247;-44
2023/07/25 05:19:59;;;;;;;20.55;12.45;;;;;;;26.60;60.44;94377.81;5095600;28;20186;-44
2023/07/25 05:22:26;;;;;;;23.25;13.55;;;;;;;26.93;58.76;94377.66;5093540;28;20196;-46
2023/07/25 05:24:54;;;;;;;23.05;14.57;;;;;;;27.30;55.96;94376.22;5092969;28;20258;-43
2023/07/25 05:27:21;;;;;;;22.67;13.52;;;;;;;27.18;55.32;94315.97;5092652;28;20848;-45
2023/07/25 05:29:47;;;;;;;25.30;13.75;;;;;;;27.74;54.31;94371.59;5092957;28;20221;-43
2023/07/25 05:32:14;;;;;;;26.52;12.50;;;;;;;27.93;54.61;94375.38;5092654;28;20197;-46
2023/07/25 05:34:41;;;;;;;16.88;13.05;;;;;;;28.31;53.02;94380.59;5092958;28;20193;-43
2023/07/25 05:37:08;;;;;;;18.75;12.00;;;;;;;28.68;51.79;94385.81;5093112;28;20193;-45
2023/07/25 05:39:34;;;;;;;24.38;13.27;;;;;;;28.85;52.04;94388.22;5093038;28;20212;-45
2023/07/25 05:42:03;;;;;;;20.73;12.90;;;;;;;29.18;50.95;94384.34;5092662;28;20660;-44
2023/07/25 05:44:30;;;;;;;26.70;15.38;;;;;;;29.41;50.26;94386.50;5092560;28;20247;-43
2023/07/25 05:46:58;;;;;;;27.45;15.52;;;;;;;29.24;50.78;94384.13;5092523;28;20194;-44
2023/07/25 05:49:25;;;;;;;21.10;13.65;;;;;;;29.07;51.28;94369.59;5092489;28;20194;-44
2023/07/25 05:51:53;;;;;;;25.65;13.73;;;;;;;29.48;50.58;94373.84;5092922;28;20196;-44
2023/07/25 05:54:20;;;;;;;20.58;12.57;;;;;;;29.82;48.57;94375.97;5092249;28;20216;-44
2023/07/25 05:56:47;;;;;;;19.40;11.60;;;;;;;30.11;48.40;94372.75;5092248;28;20615;-45
2023/07/25 05:59:15;;;;;;;20.42;13.43;;;;;;;30.35;47.04;94381.69;5092075;28;20198;-45
2023/07/25 06:01:42;;;;;;;17.58;12.23;;;;;;;30.56;46.54;94385.03;5092062;28;20628;-44
2023/07/25 06:04:11;;;;;;;17.40;11.23;;;;;;;30.84;46.14;94378.34;5092373;28;20592;-44
2023/07/25 06:06:38;;;;;;;18.65;12.35;;;;;;;31.03;44.65;94377.72;5092094;28;20200;-45
2023/07/25 06:09:05;;;;;;;19.80;11.60;;;;;;;31.21;44.40;94363.84;5091833;28;20231;-45
2023/07/25 06:11:31;;;;;;;20.42;11.90;;;;;;;31.29;43.72;94333.44;5092076;28;20243;-45
2023/07/25 06:13:58;;;;;;;14.27;10.77;;;;;;;31.65;43.70;94360.38;5091886;28;20193;-46
2023/07/25 06:16:26;;;;;;;18.35;11.48;;;;;;;31.82;43.16;94362.59;5091857;28;20228;-46
2023/07/25 06:18:53;;;;;;;14.63;10.70;;;;;;;31.95;42.92;94348.75;5091818;28;20190;-44
2023/07/25 06:21:20;;;;;;;16.40;11.10;;;;;;;32.18;42.74;94348.00;5092138;28;20189;-44
2023/07/25 06:23:47;;;;;;;22.20;11.80;;;;;;;32.36;43.00;94356.28;5091069;28;20192;-44
2023/07/25 06:26:14;;;;;;;20.70;11.48;;;;;;;32.42;42.47;94353.28;5091850;28;20584;-44
2023/07/25 06:28:41;;;;;;;16.98;10.52;;;;;;;32.59;42.37;94350.19;5091835;28;20270;-44
2023/07/25 06:31:08;;;;;;;14.52;10.65;;;;;;;32.68;41.80;94337.09;5091546;28;20222;-44
2023/07/25 06:33:36;;;;;;;20.50;11.38;;;;;;;32.05;41.58;94224.31;5091777;28;20198;-45
2023/07/25 06:36:03;;;;;;;21.60;10.93;;;;;;;32.87;41.20;94329.19;5091645;28;20228;-45
2023/07/25 06:38:30;;;;;;;15.63;10.77;;;;;;;33.09;41.10;94328.63;5091628;28;20568;-44
2023/07/25 06:40:57;;;;;;;11.88;9.73;;;;;;;33.20;40.24;94322.88;5091282;28;20194;-44
2023/07/25 06:43:24;;;;;;;20.65;10.70;;;;;;;33.27;40.34;94316.41;5091676;28;20193;-44
2023/07/25 06:45:51;;;;;;;19.98;10.27;;;;;;;33.32;40.59;94327.72;5091405;28;20198;-45
2023/07/25 06:48:18;;;;;;;18.42;10.55;;;;;;;33.26;40.36;94326.25;5091418;28;20494;-45
2023/07/25 06:50:47;;;;;;;17.33;10.63;;;;;;;33.11;40.97;94337.84;5091296;28;20192;-44
2023/07/25 06:53:14;;;;;;;19.60;10.95;;;;;;;33.30;40.71;94327.25;5091500;28;20205;-43
2023/07/25 06:55:40;;;;;;;15.00;9.98;;;;;;;33.58;39.76;94322.81;5093179;28;20747;-44
2023/07/25 06:58:07;;;;;;;17.13;10.55;;;;;;;33.84;39.34;94333.78;5091291;28;20576;-44
2023/07/25 07:00:37;;;;;;;15.30;9.95;;;;;;;33.80;39.28;94332.78;5091256;28;20193;-45
2023/07/25 07:03:04;;;;;;;19.10;9.98;;;;;;;33.71;39.10;94331.88;5091330;28;20197;-45
2023/07/25 07:05:31;;;;;;;16.65;11.05;;;;;;;33.77;38.88;94340.56;5091316;28;20258;-45
2023/07/25 07:07:59;;;;;;;16.40;10.73;;;;;;;33.84;38.83;94335.66;5090813;28;20280;-44
2023/07/25 07:10:26;;;;;;;20.65;11.35;;;;;;;33.89;38.38;94332.91;5091442;28;20194;-45
2023/07/25 07:12:53;;;;;;;18.95;10.77;;;;;;;33.75;38.38;94332.88;5090830;28;20196;-44
2023/07/25 07:15:23;;;;;;;16.48;10.90;;;;;;;33.75;39.18;94332.88;5090791;28;20217;-43
2023/07/25 07:17:51;;;;;;;19.40;12.25;;;;;;;33.87;39.25;94329.75;5090706;28;20229;-46
2023/07/25 07:20:18;;;;;;;20.17;11.32;;;;;;;34.12;38.90;94326.66;5090748;28;20728;-45
2023/07/25 07:22:44;;;;;;;15.82;10.85;;;;;;;34.34;37.92;94328.63;5090491;28;20186;-45
2023/07/25 07:25:13;;;;;;;16.52;10.80;;;;;;;34.52;37.52;94324.31;5090656;28;20205;-43
2023/07/25 07:27:39;;;;;;;16.98;11.13;;;;;;;34.51;37.59;94327.28;5090281;28;20198;-43
2023/07/25 07:30:07;;;;;;;16.15;11.23;;;;;;;34.02;38.27;94328.72;5090248;28;20225;-43
2023/07/25 07:32:34;;;;;;;16.80;11.57;;;;;;;33.82;38.71;94325.34;5090179;28;20212;-44
2023/07/25 07:35:01;;;;;;;22.17;11.82;;;;;;;33.73;39.51;94305.88;5089843;28;20189;-45
2023/07/25 07:37:28;;;;;;;24.60;12.00;;;;;;;33.78;38.60;94312.94;5089945;28;20221;-45
2023/07/25 07:39:54;;;;;;;19.95;12.68;;;;;;;33.56;38.68;94314.38;5090442;28;20791;-43
2023/07/25 07:42:22;;;;;;;22.20;11.90;;;;;;;33.48;38.86;94311.59;5090141;28;20197;-45
2023/07/25 07:44:49;;;;;;;23.63;11.27;;;;;;;33.35;39.21;94310.47;5089854;28;20190;-46
2023/07/25 07:47:16;;;;;;;21.00;11.77;;;;;;;33.16;39.44;94311.28;5090018;28;20662;-43
2023/07/25 07:49:43;;;;;;;24.55;12.10;;;;;;;33.11;39.64;94305.25;5089815;28;20197;-44
2023/07/25 07:52:09;;;;;;;17.27;11.00;;;;;;;33.21;39.46;94305.13;5090046;28;20683;-44
2023/07/25 07:54:36;;;;;;;21.42;12.15;;;;;;;33.32;39.28;94295.91;5089694;28;20247;-45
2023/07/25 07:57:03;;;;;;;21.33;11.95;;;;;;;33.28;39.88;94294.91;5090159;28;20205;-45
2023/07/25 07:59:32;;;;;;;21.20;11.20;;;;;;;33.63;38.82;94296.22;5089607;28;20193;-44
2023/07/25 08:01:59;;;;;;;18.73;11.68;;;;;;;33.94;38.15;94291.16;5089877;28;20200;-45
2023/07/25 08:04:25;;;;;;;20.75;11.32;;;;;;;34.21;37.76;94292.25;5089560;28;20569;-46
2023/07/25 08:06:52;;;;;;;17.75;10.65;;;;;;;34.47;37.59;94283.78;5089979;28;20206;-44
2023/07/25 08:09:19;;;;;;;19.00;10.93;;;;;;;34.79;37.15;94280.19;5089973;28;20302;-44
2023/07/25 08:11:46;;;;;;;18.85;11.80;;;;;;;35.02;36.75;94281.00;5090061;28;20192;-44
2023/07/25 08:14:12;;;;;;;18.15;10.52;;;;;;;35.21;36.18;94267.53;5089971;28;20197;-45
2023/07/25 08:16:40;;;;;;;22.30;12.18;;;;;;;35.35;35.46;94274.34;5089535;28;20221;-44
2023/07/25 08:19:07;;;;;;;27.98;11.45;;;;;;;35.42;35.74;94271.28;5090036;28;20190;-45
2023/07/25 08:21:34;;;;;;;16.10;10.52;;;;;;;35.52;34.28;94281.69;5089857;28;20177;-45
2023/07/25 08:24:01;;;;;;;15.82;10.82;;;;;;;35.44;35.14;94277.06;5089871;28;20201;-45
2023/07/25 08:26:27;;;;;;;17.90;10.50;;;;;;;35.54;34.10;94278.72;5089467;28;20194;-45
2023/07/25 08:28:54;;;;;;;14.95;10.77;;;;;;;35.58;34.27;94277.81;5089522;28;20181;-45
2023/07/25 08:31:21;;;;;;;17.60;10.73;;;;;;;35.76;34.36;94264.59;5089291;28;20225;-43
2023/07/25 08:33:49;;;;;;;15.35;10.13;;;;;;;35.85;33.53;94268.06;5089613;28;20193;-44
2023/07/25 08:36:16;;;;;;;15.20;9.45;;;;;;;35.71;33.84;94264.69;5089520;28;20229;-44
2023/07/25 08:38:43;;;;;;;17.33;10.55;;;;;;;35.83;33.97;94270.25;5089544;28;20201;-44
2023/07/25 08:41:11;;;;;;;16.55;10.55;;;;;;;35.76;33.93;94249.41;5089277;28;20671;-44
2023/07/25 08:43:41;;;;;;;18.88;9.68;;;;;;;35.81;33.88;94259.13;5089678;28;20220;-44
2023/07/25 08:46:09;;;;;;;14.13;10.75;;;;;;;35.92;33.58;94247.09;5091246;28;20186;-43
2023/07/25 08:48:38;;;;;;;20.27;11.20;;;;;;;35.94;33.28;94247.59;5093535;28;20186;-44
2023/07/25 08:51:08;;;;;;;15.32;10.20;;;;;;;35.85;33.75;94244.13;5093464;28;20182;-44
2023/07/25 08:53:42;;;;;;;19.10;11.20;;;;;;;35.75;33.48;94236.38;5093924;28;20264;-44
2023/07/25 08:56:08;;;;;;;13.90;9.68;;;;;;;35.66;33.72;94257.63;5093075;28;20220;-44
2023/07/25 08:58:36;;;;;;;14.43;9.50;;;;;;;35.66;33.34;94247.00;5093613;28;20182;-46
2023/07/25 09:01:03;;;;;;;15.85;9.73;;;;;;;35.70;33.28;94239.97;5093937;28;20238;-45
2023/07/25 09:03:31;;;;;;;14.23;10.40;;;;;;;35.74;33.36;94240.94;5093449;28;20196;-44
2023/07/25 09:06:00;;;;;;;18.27;10.93;;;;;;;35.78;33.65;94246.44;5093392;28;20193;-43
2023/07/25 09:08:28;;;;;;;13.57;9.55;;;;;;;35.82;33.50;94237.53;5093029;28;20190;-44
2023/07/25 09:10:59;;;;;;;19.35;10.02;;;;;;;35.93;33.43;94238.81;5093013;28;20658;-45
2023/07/25 09:13:26;;;;;;;15.88;9.70;;;;;;;35.98;33.44;94235.25;5092728;28;20247;-44
2023/07/25 09:15:52;;;;;;;15.15;10.15;;;;;;;36.00;33.21;94230.41;5093418;28;20235;-46
2023/07/25 09:18:19;;;;;;;14.52;9.93;;;;;;;36.10;33.49;94226.69;5093017;28;20247;-44
2023/07/25 09:20:46;;;;;;;16.92;10.48;;;;;;;36.15;33.91;94224.66;5093501;28;20182;-44
2023/07/25 09:23:20;;;;;;;18.42;8.88;;;;;;;36.09;33.82;94219.78;5092839;28;20649;-44
2023/07/25 09:25:48;;;;;;;16.35;10.35;;;;;;;36.07;34.01;94225.41;5093288;28;20221;-44
2023/07/25 09:28:15;;;;;;;18.05;10.48;;;;;;;36.08;33.70;94210.22;5093042;28;20245;-45
2023/07/25 09:30:47;;;;;;;17.85;9.20;;;;;;;36.22;33.39;94210.88;5093344;28;20712;-45
2023/07/25 09:33:25;;;;;;;23.13;9.30;;;;;;;36.32;33.40;94210.59;5092913;28;20243;-44
2023/07/25 09:35:52;;;;;;;19.38;10.00;;;;;;;36.42;33.72;94209.50;5092654;28;20242;-44
2023/07/25 09:38:19;;;;;;;15.93;10.15;;;;;;;36.48;34.09;94210.13;5092626;28;20270;-43
2023/07/25 09:40:48;;;;;;;18.67;10.95;;;;;;;36.53;33.55;94210.78;5093041;28;20182;-49
2023/07/25 09:43:22;;;;;;;17.02;10.45;;;;;;;36.63;33.35;94221.13;5092721;28;20205;-44
2023/07/25 09:45:49;;;;;;;15.60;9.95;;;;;;;36.67;33.55;94213.28;5092987;28;20272;-46
2023/07/25 09:48:16;;;;;;;14.88;9.80;;;;;;;36.65;33.10;94213.59;5092690;28;20299;-45
2023/07/25 09:50:44;;;;;;;20.63;9.70;;;;;;;36.57;32.81;94197.59;5092846;28;20284;-45
2023/07/25 09:53:12;;;;;;;16.52;9.50;;;;;;;36.42;33.61;94204.94;5093108;28;20281;-44
2023/07/25 09:55:38;;;;;;;14.23;9.30;;;;;;;36.43;32.97;94203.84;5092803;28;20299;-45
2023/07/25 09:58:07;;;;;;;12.13;9.40;;;;;;;36.46;32.81;94207.81;5092184;28;20271;-44
2023/07/25 10:00:34;;;;;;;16.27;10.55;;;;;;;36.45;33.13;94206.25;5092562;28;20200;-44
2023/07/25 10:03:01;;;;;;;15.73;10.15;;;;;;;36.43;33.23;94200.41;5092226;28;20273;-44
2023/07/25 10:05:28;;;;;;;17.85;9.35;;;;;;;36.41;33.10;94186.63;5092265;28;20600;-45
2023/07/25 10:07:57;;;;;;;19.05;10.07;;;;;;;36.38;33.10;94176.59;5092500;28;20201;-44
2023/07/25 10:10:24;;;;;;;21.58;9.70;;;;;;;36.36;33.37;94163.59;5091867;28;20196;-46
2023/07/25 10:12:51;;;;;;;17.00;9.93;;;;;;;36.37;33.33;94170.47;5092512;28;20260;-46
2023/07/25 10:15:20;;;;;;;13.85;8.85;;;;;;;36.31;33.77;94169.03;5091875;28;20638;-44
2023/07/25 10:17:47;;;;;;;15.65;9.65;;;;;;;36.29;33.47;94157.16;5092059;28;20222;-44
2023/07/25 10:20:21;;;;;;;19.02;9.48;;;;;;;36.28;33.48;94161.69;5092214;28;20634;-45
2023/07/25 10:22:48;;;;;;;15.85;9.95;;;;;;;36.25;33.85;94148.22;5092320;28;20207;-46
2023/07/25 10:25:19;;;;;;;16.17;9.27;;;;;;;36.28;34.13;94147.59;5091977;28;20193;-44
2023/07/25 10:27:47;;;;;;;18.38;9.48;;;;;;;36.27;33.99;94149.50;5092315;28;20336;-46
2023/07/25 10:30:26;;;;;;;13.95;8.75;;;;;;;36.29;33.98;94147.28;5091581;28;20225;-45
2023/07/25 10:32:56;;;;;;;12.93;8.52;;;;;;;36.32;33.80;94144.00;5093146;28;20185;-45
2023/07/25 10:35:43;;;;;;;15.88;10.07;;;;;;;36.42;33.64;94141.00;5091890;28;20303;-45
2023/07/25 10:38:11;;;;;;;16.95;9.57;;;;;;;36.46;33.88;94124.44;5091350;28;20719;-44
2023/07/25 10:40:52;;;;;;;24.73;9.80;;;;;;;36.41;33.85;94120.81;5091252;28;20189;-44
2023/07/25 10:43:20;;;;;;;22.38;10.30;;;;;;;36.40;34.07;94113.09;5091245;28;20205;-44
2023/07/25 10:45:51;;;;;;;16.73;10.63;;;;;;;36.41;33.91;94106.72;5091563;28;20194;-44
2023/07/25 10:48:43;;;;;;;16.90;9.45;;;;;;;36.39;33.98;94106.22;5091425;28;20680;-45
2023/07/25 10:51:10;;;;;;;13.35;9.23;;;;;;;36.33;33.69;94094.19;5091435;28;20186;-46
2023/07/25 10:53:37;;;;;;;14.93;8.43;;;;;;;36.29;33.78;94091.34;5091313;28;20193;-43
2023/07/25 10:56:15;;;;;;;14.98;9.02;;;;;;;36.33;33.88;94081.63;5091464;28;20201;-45
2023/07/25 10:59:07;;;;;;;18.10;9.10;;;;;;;36.32;34.04;94084.63;5091249;28;20185;-45
2023/07/25 11:01:37;;;;;;;20.30;9.70;;;;;;;36.29;33.89;94070.03;5091082;28;20193;-43
2023/07/25 11:04:23;;;;;;;17.90;9.05;;;;;;;36.31;33.86;94070.50;5091150;28;20206;-46
2023/07/25 11:06:51;;;;;;;19.08;8.85;;;;;;;36.36;34.29;94061.59;5091160;28;20182;-47
2023/07/25 11:09:18;;;;;;;21.35;8.60;;;;;;;36.36;33.86;94065.03;5090721;28;20224;-45
2023/07/25 11:11:46;;;;;;;14.02;8.15;;;;;;;36.28;33.53;94054.41;5090123;28;20216;-46
2023/07/25 11:14:17;;;;;;;14.23;8.25;;;;;;;36.22;33.54;94047.66;5090991;28;20190;-45
2023/07/25 11:16:47;;;;;;;15.18;8.60;;;;;;;36.22;33.49;94051.09;5090392;28;20229;-46
2023/07/25 11:19:14;;;;;;;15.50;8.18;;;;;;;36.28;33.96;94057.84;5090823;28;20198;-44
2023/07/25 11:21:42;;;;;;;14.63;8.25;;;;;;;36.46;33.70;94044.53;5090612;28;20221;-44